createdAt,value
2022-10-29T00:01:42.334Z,13.38
2022-10-29T00:04:10.871Z,13.07
2022-10-29T00:06:39.473Z,17.90
2022-10-29T00:09:08.280Z,15.40
2022-10-29T00:11:36.849Z,13.65
2022-10-29T00:14:05.390Z,16.35
2022-10-29T00:16:39.214Z,15.48
2022-10-29T00:19:08.008Z,21.88
2022-10-29T00:21:38.204Z,20.20
2022-10-29T00:24:07.118Z,20.48
2022-10-29T00:26:35.605Z,18.67
2022-10-29T00:29:04.151Z,15.77
2022-10-29T00:31:32.674Z,13.38
2022-10-29T00:34:02.649Z,17.88
2022-10-29T00:36:31.469Z,15.70
2022-10-29T00:38:59.859Z,15.98
2022-10-29T00:41:29.616Z,14.10
2022-10-29T00:44:13.149Z,13.82
2022-10-29T00:46:43.012Z,17.45
2022-10-29T00:49:13.313Z,15.00
2022-10-29T00:51:41.888Z,14.02
2022-10-29T00:54:11.375Z,12.98
2022-10-29T00:56:41.136Z,16.55
2022-10-29T00:59:10.462Z,15.45
2022-10-29T01:01:39.393Z,18.23
2022-10-29T01:04:08.339Z,14.82
2022-10-29T01:06:38.176Z,15.20
2022-10-29T01:09:06.507Z,18.17
2022-10-29T01:11:42.771Z,16.13
2022-10-29T01:14:15.251Z,13.57
2022-10-29T01:16:48.893Z,19.33
2022-10-29T01:19:22.357Z,18.50
2022-10-29T01:21:55.071Z,18.57
2022-10-29T01:24:38.294Z,15.30
2022-10-29T01:27:21.483Z,13.53
2022-10-29T01:29:59.116Z,15.13
2022-10-29T01:32:33.055Z,13.73
2022-10-29T01:35:03.464Z,14.67
2022-10-29T01:37:34.526Z,15.13
2022-10-29T01:40:07.113Z,15.90
2022-10-29T01:42:38.348Z,12.43
2022-10-29T01:45:11.685Z,14.80
2022-10-29T01:47:44.298Z,14.60
2022-10-29T01:50:15.120Z,14.93
2022-10-29T01:52:45.299Z,13.67
2022-10-29T01:55:17.190Z,12.27
2022-10-29T01:57:45.626Z,16.07
2022-10-29T02:00:15.581Z,15.60
2022-10-29T02:02:49.161Z,17.97
2022-10-29T02:05:21.016Z,13.03
2022-10-29T02:07:51.979Z,14.83
2022-10-29T02:10:24.121Z,13.93
2022-10-29T02:12:54.264Z,15.20
2022-10-29T02:15:25.934Z,14.40
2022-10-29T02:18:00.225Z,16.13
2022-10-29T02:20:28.646Z,13.10
2022-10-29T02:22:57.113Z,15.33
2022-10-29T02:25:25.991Z,14.80
2022-10-29T02:27:54.830Z,16.77
2022-10-29T02:30:23.428Z,14.60
2022-10-29T02:32:51.789Z,13.67
2022-10-29T02:35:21.883Z,16.07
2022-10-29T02:37:50.325Z,12.83
2022-10-29T02:40:19.000Z,19.17
2022-10-29T02:42:47.384Z,20.63
2022-10-29T02:45:15.856Z,14.63
2022-10-29T02:47:44.286Z,13.23
2022-10-29T02:50:12.775Z,16.27
2022-10-29T02:52:43.242Z,13.77
2022-10-29T02:55:11.679Z,15.83
2022-10-29T02:57:40.139Z,17.00
2022-10-29T03:00:09.067Z,11.97
2022-10-29T03:02:37.599Z,16.43
2022-10-29T03:05:06.373Z,15.37
2022-10-29T03:07:37.325Z,12.47
2022-10-29T03:10:07.670Z,13.53
2022-10-29T03:12:36.131Z,15.53
2022-10-29T03:15:04.573Z,14.67
2022-10-29T03:17:33.019Z,15.70
2022-10-29T03:20:01.550Z,13.67
2022-10-29T03:22:30.015Z,17.77
2022-10-29T03:24:58.505Z,14.40
2022-10-29T03:27:28.192Z,14.47
2022-10-29T03:29:56.688Z,14.90
2022-10-29T03:32:25.151Z,12.60
2022-10-29T03:34:56.119Z,11.60
2022-10-29T03:37:28.169Z,13.17
2022-10-29T03:39:56.601Z,11.10
2022-10-29T03:42:25.099Z,13.57
2022-10-29T03:44:54.985Z,15.70
2022-10-29T03:47:23.475Z,14.90
2022-10-29T03:49:51.949Z,15.83
2022-10-29T03:52:25.535Z,15.03
2022-10-29T03:54:53.989Z,17.10
2022-10-29T03:57:22.406Z,13.13
2022-10-29T03:59:52.605Z,15.50
2022-10-29T04:02:22.841Z,14.53
2022-10-29T04:04:51.325Z,15.37
2022-10-29T04:07:19.708Z,10.43
2022-10-29T04:09:48.107Z,14.57
2022-10-29T04:12:16.479Z,18.43
2022-10-29T04:14:45.926Z,13.47
2022-10-29T04:17:14.650Z,10.67
2022-10-29T04:19:44.499Z,12.10
2022-10-29T04:30:56.674Z,13.33
2022-10-29T04:33:25.137Z,13.17
2022-10-29T04:35:56.012Z,18.33
2022-10-29T04:38:24.481Z,15.10
2022-10-29T04:40:52.962Z,14.80
2022-10-29T04:43:21.945Z,14.97
2022-10-29T04:45:53.329Z,14.37
2022-10-29T04:48:22.004Z,19.53
2022-10-29T04:50:50.980Z,12.43
2022-10-29T04:53:20.778Z,14.53
2022-10-29T04:55:49.011Z,13.53
2022-10-29T04:58:18.503Z,12.83
2022-10-29T05:00:47.116Z,20.40
2022-10-29T05:03:15.365Z,12.83
2022-10-29T05:05:43.569Z,19.57
2022-10-29T05:08:12.621Z,18.23
2022-10-29T05:11:03.098Z,15.13
2022-10-29T05:13:32.178Z,15.63
2022-10-29T05:16:00.427Z,19.63
2022-10-29T05:18:28.730Z,17.70
2022-10-29T05:20:57.210Z,15.10
2022-10-29T05:23:25.751Z,19.83
2022-10-29T05:25:57.263Z,18.70
2022-10-29T05:28:25.805Z,16.60
2022-10-29T05:30:54.779Z,16.80
2022-10-29T05:33:24.097Z,19.87
2022-10-29T05:35:52.660Z,17.10
2022-10-29T05:38:20.848Z,17.73
2022-10-29T05:40:49.004Z,15.63
2022-10-29T05:43:19.127Z,11.07
2022-10-29T05:45:47.353Z,18.30
2022-10-29T05:48:15.529Z,19.03
2022-10-29T05:50:43.703Z,19.40
2022-10-29T05:53:12.674Z,18.97
2022-10-29T05:55:40.850Z,18.73
2022-10-29T05:58:11.156Z,18.30
2022-10-29T06:00:41.520Z,17.97
2022-10-29T06:03:12.958Z,19.53
2022-10-29T06:05:53.859Z,23.47
2022-10-29T06:08:26.526Z,20.33
2022-10-29T06:10:54.720Z,17.77
2022-10-29T06:13:23.730Z,22.03
2022-10-29T06:15:58.266Z,17.03
2022-10-29T06:18:26.559Z,15.17
2022-10-29T06:20:54.752Z,17.93
2022-10-29T06:23:25.372Z,20.13
2022-10-29T06:25:55.296Z,28.47
2022-10-29T06:28:24.017Z,24.20
2022-10-29T06:30:53.559Z,16.97
2022-10-29T06:33:22.336Z,17.03
2022-10-29T06:35:50.651Z,19.53
2022-10-29T06:38:18.858Z,17.73
2022-10-29T06:40:54.171Z,17.47
2022-10-29T06:43:22.412Z,35.53
2022-10-29T06:45:50.898Z,17.00
2022-10-29T06:48:22.431Z,15.73
2022-10-29T06:50:50.984Z,16.13
2022-10-29T06:53:19.437Z,18.63
2022-10-29T06:55:47.732Z,19.80
2022-10-29T06:58:17.001Z,18.10
2022-10-29T07:00:45.646Z,21.30
2022-10-29T07:03:14.462Z,18.13
2022-10-29T07:05:44.371Z,19.23
2022-10-29T07:08:12.570Z,17.63
2022-10-29T07:10:41.268Z,16.23
2022-10-29T07:13:09.475Z,15.37
2022-10-29T07:15:37.682Z,15.23
2022-10-29T07:18:06.878Z,15.63
2022-10-29T07:20:35.876Z,22.20
2022-10-29T07:23:05.619Z,15.30
2022-10-29T07:25:34.197Z,16.03
2022-10-29T07:28:04.542Z,20.03
2022-10-29T07:30:32.860Z,16.43
2022-10-29T07:33:01.043Z,20.07
2022-10-29T07:35:29.250Z,21.10
2022-10-29T07:38:05.069Z,21.93
2022-10-29T07:40:40.293Z,17.70
2022-10-29T07:43:08.582Z,21.83
2022-10-29T07:45:36.846Z,16.97
2022-10-29T07:48:07.311Z,20.30
2022-10-29T07:50:35.770Z,23.57
2022-10-29T07:53:04.132Z,17.93
2022-10-29T07:55:32.340Z,19.87
2022-10-29T07:58:02.735Z,17.37
2022-10-29T08:00:31.042Z,19.83
2022-10-29T08:02:59.281Z,30.80
2022-10-29T08:05:28.140Z,34.53
2022-10-29T08:07:56.656Z,30.60
2022-10-29T08:10:25.112Z,28.30
2022-10-29T08:12:53.880Z,23.43
2022-10-29T08:15:23.682Z,21.40
2022-10-29T08:17:51.973Z,17.87
2022-10-29T08:20:20.527Z,18.23
2022-10-29T08:22:48.724Z,20.47
2022-10-29T08:25:17.556Z,15.07
2022-10-29T08:27:46.160Z,15.23
2022-10-29T08:30:15.402Z,18.70
2022-10-29T08:32:48.252Z,20.70
2022-10-29T08:35:16.620Z,23.10
2022-10-29T08:37:44.843Z,16.20
2022-10-29T08:40:15.534Z,21.00
2022-10-29T08:42:49.775Z,18.20
2022-10-29T08:45:22.136Z,23.47
2022-10-29T08:47:59.054Z,19.37
2022-10-29T08:50:30.516Z,19.37
2022-10-29T08:53:22.939Z,20.37
2022-10-29T08:55:48.154Z,22.30
2022-10-29T08:58:21.412Z,23.47
2022-10-29T09:00:51.215Z,18.87
2022-10-29T09:03:20.772Z,20.97
2022-10-29T09:05:52.094Z,16.70
2022-10-29T09:08:27.058Z,18.23
2022-10-29T09:10:56.491Z,17.17
2022-10-29T09:13:30.088Z,18.80
2022-10-29T09:16:25.389Z,23.43
2022-10-29T09:19:14.106Z,19.07
2022-10-29T09:21:47.607Z,25.60
2022-10-29T09:24:16.544Z,20.73
2022-10-29T09:26:49.439Z,23.30
2022-10-29T09:29:26.513Z,19.33
2022-10-29T09:31:56.520Z,18.33
2022-10-29T09:34:30.718Z,25.20
2022-10-29T09:36:58.919Z,19.53
2022-10-29T09:39:33.882Z,18.83
2022-10-29T09:42:03.348Z,16.67
2022-10-29T09:44:35.296Z,17.42
2022-10-29T09:47:11.676Z,20.50
2022-10-29T09:49:48.882Z,18.45
2022-10-29T09:52:19.082Z,20.45
2022-10-29T09:54:47.744Z,20.13
2022-10-29T09:57:18.409Z,17.02
2022-10-29T09:59:49.017Z,12.75
2022-10-29T10:02:23.951Z,24.17
2022-10-29T10:04:56.839Z,17.75
2022-10-29T10:07:25.051Z,21.48
2022-10-29T10:09:57.095Z,18.98
2022-10-29T10:12:27.926Z,14.00
2022-10-29T10:15:06.891Z,17.58
2022-10-29T10:17:54.088Z,19.70
2022-10-29T10:20:32.279Z,21.10
2022-10-29T10:23:00.797Z,15.07
2022-10-29T10:25:36.628Z,17.33
2022-10-29T10:28:05.782Z,18.25
2022-10-29T10:30:34.078Z,17.38
2022-10-29T10:33:13.146Z,17.65
2022-10-29T10:35:43.013Z,20.90
2022-10-29T10:38:11.859Z,19.20
2022-10-29T10:40:40.165Z,18.80
2022-10-29T10:43:09.123Z,15.82
2022-10-29T10:45:39.137Z,10.73
2022-10-29T10:48:10.178Z,16.95
2022-10-29T10:50:39.053Z,15.65
2022-10-29T10:53:17.595Z,17.15
2022-10-29T10:55:48.790Z,15.32
2022-10-29T10:58:21.096Z,15.13
2022-10-29T11:00:51.407Z,12.85
2022-10-29T11:05:56.642Z,17.65
2022-10-29T11:08:28.937Z,13.85
2022-10-29T11:10:58.938Z,14.10
2022-10-29T11:13:30.239Z,11.05
2022-10-29T11:16:00.178Z,12.90
2022-10-29T11:18:32.425Z,12.57
2022-10-29T11:21:05.457Z,12.15
2022-10-29T11:23:41.662Z,9.98
2022-10-29T11:26:13.330Z,8.50
2022-10-29T11:28:42.953Z,10.95
2022-10-29T11:31:14.682Z,10.50
2022-10-29T11:33:47.215Z,16.05
2022-10-29T11:36:20.894Z,13.55
2022-10-29T11:38:52.621Z,10.45
2022-10-29T11:41:25.342Z,13.45
2022-10-29T11:43:53.836Z,9.05
2022-10-29T11:46:26.231Z,12.35
2022-10-29T11:49:01.163Z,16.30
2022-10-29T11:51:33.356Z,10.05
2022-10-29T11:54:05.267Z,13.18
2022-10-29T11:56:52.539Z,16.23
2022-10-29T11:59:24.864Z,15.98
2022-10-29T12:01:59.271Z,8.23
2022-10-29T12:04:29.387Z,11.20
2022-10-29T12:07:02.181Z,11.93
2022-10-29T12:09:38.474Z,17.45
2022-10-29T12:12:13.187Z,8.73
2022-10-29T12:14:45.861Z,9.52
2022-10-29T12:17:16.027Z,8.80
2022-10-29T12:19:49.432Z,13.43
2022-10-29T12:22:26.825Z,13.32
2022-10-29T12:25:19.945Z,14.35
2022-10-29T12:27:56.555Z,11.73
2022-10-29T12:30:26.014Z,12.65
2022-10-29T12:33:04.464Z,10.90
2022-10-29T12:35:35.782Z,12.43
2022-10-29T12:38:23.117Z,13.15
2022-10-29T12:40:53.665Z,10.68
2022-10-29T12:43:24.847Z,13.57
2022-10-29T12:46:19.127Z,12.27
2022-10-29T12:48:52.848Z,11.68
2022-10-29T12:51:29.442Z,12.40
2022-10-29T12:54:09.275Z,14.98
2022-10-29T12:56:47.750Z,15.55
2022-10-29T12:59:37.412Z,12.63
2022-10-29T13:02:35.399Z,12.27
2022-10-29T13:05:22.405Z,12.25
2022-10-29T13:08:21.041Z,12.18
2022-10-29T13:10:57.226Z,15.75
2022-10-29T13:13:41.494Z,13.13
2022-10-29T13:16:16.145Z,12.23
2022-10-29T13:18:54.758Z,13.77
2022-10-29T13:21:42.264Z,11.80
2022-10-29T13:24:18.508Z,11.73
2022-10-29T13:26:57.168Z,10.95
2022-10-29T13:29:49.355Z,13.57
2022-10-29T13:32:34.852Z,17.02
2022-10-29T13:35:04.427Z,11.70
2022-10-29T13:37:54.661Z,13.05
2022-10-29T13:40:42.008Z,11.68
2022-10-29T13:43:19.760Z,11.25
2022-10-29T13:45:51.080Z,12.23
2022-10-29T13:48:24.376Z,11.82
2022-10-29T13:50:53.374Z,12.60
2022-10-29T13:53:25.224Z,14.27
2022-10-29T13:55:53.751Z,12.70
2022-10-29T13:58:28.136Z,8.90
2022-10-29T14:00:58.781Z,17.88
2022-10-29T14:03:31.664Z,15.50
2022-10-29T14:06:02.582Z,12.93
2022-10-29T14:08:36.694Z,11.88
2022-10-29T14:11:09.756Z,10.30
2022-10-29T14:13:46.379Z,12.40
2022-10-29T14:16:16.586Z,10.68
2022-10-29T14:18:48.227Z,14.93
2022-10-29T14:21:19.961Z,16.70
2022-10-29T14:24:01.307Z,6.88
2022-10-29T14:26:31.001Z,8.07
2022-10-29T14:29:14.711Z,11.18
2022-10-29T14:31:43.574Z,9.10
2022-10-29T14:34:23.702Z,12.05
2022-10-29T14:36:53.055Z,9.57
2022-10-29T14:39:25.822Z,9.65
2022-10-29T14:41:55.708Z,10.98
2022-10-29T14:44:29.179Z,13.07
2022-10-29T14:47:06.340Z,11.20
2022-10-29T14:49:35.841Z,16.50
2022-10-29T14:52:05.362Z,16.02
2022-10-29T14:54:34.907Z,13.55
2022-10-29T14:57:04.551Z,16.75
2022-10-29T14:59:35.675Z,14.63
2022-10-29T15:02:31.943Z,10.55
2022-10-29T15:05:01.723Z,14.77
2022-10-29T15:07:35.695Z,14.18
2022-10-29T15:10:10.961Z,12.27
2022-10-29T15:12:40.683Z,12.25
2022-10-29T15:15:14.073Z,11.05
2022-10-29T15:17:49.266Z,15.32
2022-10-29T15:20:21.803Z,11.52
2022-10-29T15:22:56.970Z,16.40
2022-10-29T15:25:28.668Z,12.85
2022-10-29T15:27:57.632Z,10.18
2022-10-29T15:30:36.599Z,13.13
2022-10-29T15:33:08.372Z,11.77
2022-10-29T15:35:37.619Z,12.45
2022-10-29T15:38:06.353Z,9.70
2022-10-29T15:40:35.217Z,20.00
2022-10-29T15:43:18.591Z,9.40
2022-10-29T15:45:59.711Z,11.32
2022-10-29T15:48:35.689Z,13.73
2022-10-29T15:51:06.018Z,14.02
2022-10-29T15:53:36.506Z,8.95
2022-10-29T15:56:06.928Z,12.63
2022-10-29T15:58:43.017Z,12.20
2022-10-29T16:01:15.056Z,12.18
2022-10-29T16:03:44.517Z,12.98
2022-10-29T16:06:13.552Z,11.45
2022-10-29T16:08:43.553Z,15.30
2022-10-29T16:11:14.717Z,9.57
2022-10-29T16:13:44.128Z,13.60
2022-10-29T16:16:14.969Z,10.30
2022-10-29T16:18:43.846Z,11.05
2022-10-29T16:21:14.651Z,13.85
2022-10-29T16:23:43.416Z,25.25
2022-10-29T16:26:16.216Z,17.95
2022-10-29T16:28:45.244Z,13.77
2022-10-29T16:31:21.201Z,14.40
2022-10-29T16:33:55.901Z,15.20
2022-10-29T16:36:26.678Z,19.00
2022-10-29T16:38:55.274Z,13.18
2022-10-29T16:41:24.178Z,15.18
2022-10-29T16:43:53.179Z,13.15
2022-10-29T16:46:23.473Z,12.15
2022-10-29T16:48:52.055Z,18.38
2022-10-29T16:51:20.823Z,10.82
2022-10-29T16:53:50.369Z,13.32
2022-10-29T16:56:19.326Z,18.35
2022-10-29T16:58:47.852Z,11.35
2022-10-29T17:01:16.851Z,15.60
2022-10-29T17:03:47.534Z,16.08
2022-10-29T17:06:16.070Z,14.90
2022-10-29T17:08:45.132Z,26.45
2022-10-29T17:11:13.756Z,26.92
2022-10-29T17:13:42.276Z,20.02
2022-10-29T17:16:11.231Z,17.15
2022-10-29T17:18:41.709Z,16.35
2022-10-29T17:21:22.922Z,18.35
2022-10-29T17:23:51.610Z,19.45
2022-10-29T17:26:20.144Z,16.83
2022-10-29T17:28:50.786Z,18.50
2022-10-29T17:31:37.354Z,25.25
2022-10-29T17:34:06.309Z,22.67
2022-10-29T17:36:41.052Z,18.33
2022-10-29T17:39:10.529Z,15.93
2022-10-29T17:41:39.752Z,16.92
2022-10-29T17:44:15.341Z,20.58
2022-10-29T17:46:43.792Z,18.48
2022-10-29T17:49:12.507Z,21.02
2022-10-29T17:51:42.784Z,19.95
2022-10-29T17:54:11.380Z,19.73
2022-10-29T17:56:40.199Z,18.48
2022-10-29T17:59:13.137Z,21.70
2022-10-29T18:02:06.274Z,18.88
2022-10-29T18:04:35.326Z,19.30
2022-10-29T18:07:05.567Z,20.40
2022-10-29T18:09:33.999Z,16.58
2022-10-29T18:12:02.385Z,18.02
2022-10-29T18:14:30.765Z,16.55
2022-10-29T18:16:59.523Z,19.00
2022-10-29T18:19:27.920Z,17.63
2022-10-29T18:21:56.398Z,24.83
2022-10-29T18:24:26.824Z,17.20
2022-10-29T18:26:55.571Z,21.73
2022-10-29T18:29:25.232Z,16.08
2022-10-29T18:31:54.117Z,17.08
2022-10-29T18:34:23.525Z,16.02
2022-10-29T18:36:52.133Z,15.00
2022-10-29T18:39:20.789Z,14.93
2022-10-29T18:41:51.124Z,13.20
2022-10-29T18:44:19.759Z,16.45
2022-10-29T18:46:48.419Z,15.40
2022-10-29T18:49:17.158Z,16.55
2022-10-29T18:51:46.915Z,14.73
2022-10-29T18:54:15.859Z,11.82
2022-10-29T18:56:47.509Z,18.95
2022-10-29T18:59:17.520Z,12.60
2022-10-29T19:01:46.167Z,16.52
2022-10-29T19:04:16.601Z,18.45
2022-10-29T19:06:45.122Z,10.82
2022-10-29T19:09:15.172Z,20.13
2022-10-29T19:11:43.841Z,13.23
2022-10-29T19:14:14.327Z,11.82
2022-10-29T19:16:44.383Z,12.98
2022-10-29T19:19:16.040Z,13.07
2022-10-29T19:21:47.121Z,16.15
2022-10-29T19:24:16.354Z,24.30
2022-10-29T19:26:45.366Z,21.42
2022-10-29T19:29:15.673Z,16.02
2022-10-29T19:31:46.404Z,11.68
2022-10-29T19:34:14.878Z,15.65
2022-10-29T19:36:43.349Z,12.50
2022-10-29T19:39:11.980Z,13.15
2022-10-29T19:41:41.048Z,13.43
2022-10-29T19:44:09.708Z,15.27
2022-10-29T19:46:38.289Z,16.58
2022-10-29T19:49:08.378Z,17.27
2022-10-29T19:51:36.900Z,13.80
2022-10-29T19:54:07.286Z,15.40
2022-10-29T19:56:35.907Z,13.57
2022-10-29T19:59:05.336Z,11.70
2022-10-29T20:01:33.947Z,15.30
2022-10-29T20:04:02.573Z,14.00
2022-10-29T20:06:32.752Z,11.35
2022-10-29T20:09:01.309Z,12.70
2022-10-29T20:11:30.221Z,11.13
2022-10-29T20:13:58.654Z,16.52
2022-10-29T20:16:27.444Z,15.82
2022-10-29T20:18:56.411Z,17.70
2022-10-29T20:21:25.386Z,14.27
2022-10-29T20:23:56.517Z,11.15
2022-10-29T20:26:25.695Z,14.73
2022-10-29T20:28:57.098Z,10.65
2022-10-29T20:31:29.978Z,15.63
2022-10-29T20:33:59.956Z,10.63
2022-10-29T20:36:30.049Z,11.15
2022-10-29T20:39:01.823Z,14.70
2022-10-29T20:41:30.658Z,11.45
2022-10-29T20:43:59.622Z,8.70
2022-10-29T20:46:28.702Z,11.68
2022-10-29T20:48:57.849Z,14.65
2022-10-29T20:51:26.818Z,16.08
2022-10-29T20:53:55.912Z,9.45
2022-10-29T20:56:26.841Z,13.10
2022-10-29T20:58:55.517Z,13.48
2022-10-29T21:01:25.864Z,13.43
2022-10-29T21:03:54.554Z,11.63
2022-10-29T21:06:23.267Z,12.02
2022-10-29T21:08:53.880Z,9.43
2022-10-29T21:11:23.433Z,16.27
2022-10-29T21:13:53.484Z,11.98
2022-10-29T21:16:23.090Z,9.57
2022-10-29T21:18:52.872Z,9.25
2022-10-29T21:21:21.795Z,9.15
2022-10-29T21:23:50.557Z,8.98
2022-10-29T21:26:20.151Z,11.55
2022-10-29T21:28:49.276Z,13.98
2022-10-29T21:31:19.766Z,11.98
2022-10-29T21:33:51.163Z,12.52
2022-10-29T21:36:19.766Z,13.63
2022-10-29T21:38:49.175Z,12.02
2022-10-29T21:41:18.974Z,12.38
2022-10-29T21:43:47.662Z,11.48
2022-10-29T21:46:16.109Z,19.33
2022-10-29T21:48:46.026Z,17.13
2022-10-29T21:51:15.655Z,10.80
2022-10-29T21:53:44.460Z,11.77
2022-10-29T21:56:13.765Z,10.90
2022-10-29T21:58:42.366Z,9.50
2022-10-29T22:01:12.198Z,10.20
2022-10-29T22:03:41.865Z,8.55
2022-10-29T22:06:12.614Z,9.90
2022-10-29T22:08:41.311Z,13.73
2022-10-29T22:11:10.070Z,10.75
2022-10-29T22:13:38.706Z,10.45
2022-10-29T22:16:08.874Z,12.85
2022-10-29T22:18:38.345Z,8.73
2022-10-29T22:21:08.115Z,12.15
2022-10-29T22:23:38.976Z,12.00
2022-10-29T22:26:07.494Z,11.05
2022-10-29T22:28:36.008Z,13.40
2022-10-29T22:31:05.589Z,9.20
2022-10-29T22:33:34.699Z,9.35
2022-10-29T22:36:07.264Z,10.90
2022-10-29T22:38:35.972Z,8.82
2022-10-29T22:41:10.282Z,13.55
2022-10-29T22:43:39.333Z,13.20
2022-10-29T22:46:08.531Z,13.35
2022-10-29T22:48:37.283Z,10.93
2022-10-29T22:51:06.658Z,12.13
2022-10-29T22:53:35.794Z,14.50
2022-10-29T22:56:04.404Z,12.38
2022-10-29T22:58:34.787Z,14.43
2022-10-29T23:01:04.400Z,9.70
2022-10-29T23:03:32.656Z,13.18
2022-10-29T23:06:01.348Z,10.70
2022-10-29T23:08:29.949Z,8.63
2022-10-29T23:10:58.170Z,11.65
2022-10-29T23:13:26.426Z,9.77
2022-10-29T23:15:56.001Z,9.80
2022-10-29T23:18:24.247Z,11.90
2022-10-29T23:20:59.757Z,15.63
2022-10-29T23:23:27.975Z,11.15
2022-10-29T23:26:00.780Z,9.95
2022-10-29T23:28:29.032Z,11.20
2022-10-29T23:30:59.004Z,13.38
2022-10-29T23:33:27.277Z,11.30
2022-10-29T23:35:55.459Z,9.35
2022-10-29T23:38:23.832Z,11.88
2022-10-29T23:40:52.027Z,13.15
2022-10-29T23:43:20.239Z,12.02
2022-10-29T23:45:48.440Z,10.45
2022-10-29T23:48:18.112Z,10.23
2022-10-29T23:50:46.640Z,10.30
2022-10-29T23:53:15.131Z,12.95
2022-10-29T23:55:43.766Z,12.45
2022-10-29T23:58:12.685Z,13.10
